Handen wassen----alle corona-adviezen op een rij.
Click here



METAR rapporten vliegvelden

   
EBAW - Antwerp
Gewijzigd: 26-05-2020 18:50
Helder  
Helder  
   Wind: NNW 18.5 km/h
Wind: NNW 18.5 km/h
Temperatuur: 24°C
Dauwpunt: 8°C
Vochtigheid: 36%
Barometer: 1034 hPa
Zicht: meer dan 10 km
Bewolking: Helder
EBAW 261650Z 34010KT 300V010 CAVOK 24/08 Q1034 NOSIG
EBLG - Li├Ęge
Gewijzigd: 26-05-2020 18:50
Helder  
Helder  
   Wind: NNO 14.8 km/h
Wind: NNO 14.8 km/h
Temperatuur: 21°C
Dauwpunt: 6°C
Vochtigheid: 38%
Barometer: 1034 hPa
Zicht: meer dan 10 km
Bewolking: Helder
EBLG 261650Z 03008KT 360V070 CAVOK 21/06 Q1034 NOSIG
EBCV - Mons/Bergen
Gewijzigd: 26-05-2020 18:55
Licht bewolkt  
Licht bewolkt  
   Wind: NNO 18.5 km/h
Wind: NNO 18.5 km/h
Temperatuur: 24°C
Dauwpunt: 6°C
Vochtigheid: 31%
Barometer: 1033 hPa
Bewolking: Licht bewolkt
Zicht: meer dan 10 km
Bewolking: Licht bewolkt 11000 ft
EBCV 261655Z AUTO 02010KT 9999 FEW110/// 24/06 Q1033 BLU
EHBK - Maastricht
Gewijzigd: 26-05-2020 18:55
Gedeeltelijk bewolkt  
Gedeeltelijk bewolkt  
   Wind: NO 16.7 km/h
Wind: NO 16.7 km/h
Temperatuur: 22°C
Dauwpunt: 6°C
Vochtigheid: 36%
Barometer: 1033 hPa
Bewolking: Gedeeltelijk bewolkt
Zicht: meer dan 10 km
Bewolking: Gedeeltelijk bewolkt
EHBK 261655Z AUTO 04009KT 360V080 9999 NSC 22/06 Q1033 NOSIG
ELLX - Luxemburg
Gewijzigd: 26-05-2020 18:50
Helder  
Helder  
   Wind: NNO 16.7 km/h
Wind: NNO 16.7 km/h
Temperatuur: 22°C
Dauwpunt: 5°C
Vochtigheid: 33%
Barometer: 1033 hPa
Zicht: meer dan 10 km
Bewolking: Helder
ELLX 261650Z 03009KT 360V060 CAVOK 22/05 Q1033 NOSIG
EBOS - Oostende
Gewijzigd: 26-05-2020 18:50
Helder  
Helder  
   Wind: NNO 16.7 km/h
Wind: NNO 16.7 km/h
Temperatuur: 18°C
Dauwpunt: 8°C
Vochtigheid: 52%
Barometer: 1035 hPa
Zicht: meer dan 10 km
Bewolking: Helder
EBOS 261650Z 02009KT CAVOK 18/08 Q1035 NOSIG

Script ontwikkeld door  Saratoga-weather.org Aangepast voor de template door  Weerstation Leuven



Corona... blijf opletten.
Click here